Flight Track Log - Related Links

Times and Time Zones

All times are in EDT time to prevent confusion due to time zone crossing. See the EJA935 flight status page for this flight to view local times or setup timezone preferences in your user account.

Time Position Orientation Groundspeed Altitude Reporting Facility
EDT Latitude Longitude Course Direction KTS MPH feet Rate Location/Type
Tue 04:04:09 PM 39.5267 -107.7267 333° Northwest 45 52 5,500  Level Denver Center
Tue 04:05:11 PM 39.5453 -107.7861 292° West 162 186 7,900 3,048 Climbing Denver Center
Tue 04:06:13 PM 39.6197 -107.8083 347° North 241 277 11,800 3,581 Climbing Denver Center
Tue 04:07:15 PM 39.7128 -107.8322 349° North 307 353 15,300 2,129 Climbing Denver Center
Tue 04:08:00 PM 40.1652 -107.9905 330° Northwest  Level FlightAware Approximate
Tue 04:08:17 PM 39.8081 -107.8558 349° North 363 418 16,200  Level Denver Center
Tue 04:09:00 PM 40.2664 -108.0609 333° Northwest  Level FlightAware Approximate
Tue 04:09:19 PM 39.9258 -107.8864 349° North 385 443 18,200  Level Denver Center
Tue 04:10:21 PM 40.0289 -107.9139 348° North 392 451 19,600 1,548 Climbing Denver Center
Tue 04:11:23 PM 40.1447 -107.9778 337° Northwest 403 464 21,400 1,500 Climbing Denver Center
Tue 04:12:25 PM 40.2417 -108.0458 332° Northwest 413 475 22,700 1,548 Climbing Denver Center
Tue 04:13:27 PM 40.3586 -108.1283 332° Northwest 425 489 24,600 1,694 Climbing Denver Center
Tue 04:14:29 PM 40.4597 -108.2006 331° Northwest 430 495 26,200 1,403 Climbing Denver Center
Tue 04:15:31 PM 40.5783 -108.2850 332° Northwest 434 499 27,500 871 Climbing Denver Center
Tue 04:16:33 PM 40.6856 -108.3594 332° Northwest 447 514 28,000 242 Climbing Denver Center
Tue 04:17:35 PM 40.8161 -108.4539 331° Northwest 473 544 28,000  Level Denver Center
Tue 04:18:19 PM 40.8931 -108.5097 331° Northwest 487 560 28,000  Level Salt Lake Center
Tue 04:19:20 PM 41.0311 -108.6089 332° Northwest 502 578 28,000  Level Salt Lake Center
Tue 04:20:22 PM 41.1453 -108.6906 332° Northwest 494 568 28,000  Level Salt Lake Center
Tue 04:21:24 PM 41.2575 -108.7711 332° Northwest 485 558 28,000  Level Salt Lake Center
Tue 04:22:26 PM 41.3911 -108.8497 336° Northwest 475 547 28,000  Level Salt Lake Center
Tue 04:23:27 PM 41.5044 -108.9164 336° Northwest 474 545 28,000  Level Salt Lake Center
Tue 04:24:29 PM 41.6367 -108.9936 336° Northwest 472 543 28,000  Level Salt Lake Center
Tue 04:25:30 PM 41.7486 -109.0617 336° Northwest 467 537 28,000  Level Salt Lake Center
Tue 04:26:32 PM 41.8831 -109.1408 336° Northwest 472 543 28,000  Level Salt Lake Center
Tue 04:27:34 PM 41.9983 -109.2086 336° Northwest 474 545 28,000  Level Salt Lake Center
Tue 04:28:35 PM 42.1306 -109.2894 336° Northwest 469 540 28,000  Level Salt Lake Center
Tue 04:29:37 PM 42.2439 -109.3578 336° Northwest 468 539 28,000  Level Salt Lake Center
Tue 04:30:39 PM 42.3769 -109.4386 336° Northwest 469 540 28,000  Level Salt Lake Center
Tue 04:31:40 PM 42.4908 -109.5081 336° Northwest 470 541 28,000  Level Salt Lake Center
Tue 04:32:42 PM 42.6183 -109.6022 331° Northwest 467 537 28,000 -49 Level Salt Lake Center
Tue 04:33:43 PM 42.7203 -109.6950 326° Northwest 461 531 27,900 -780 Descending Salt Lake Center
Tue 04:34:45 PM 42.8264 -109.7914 326° Northwest 477 549 26,400 -1,548 Descending Salt Lake Center
Tue 04:35:47 PM 42.9503 -109.9036 326° Northwest 502 578 24,700 -1,707 Descending Salt Lake Center
Tue 04:36:48 PM 43.0819 -110.0244 326° Northwest 508 585 22,900 -1,854 Descending Salt Lake Center
Tue 04:37:50 PM 43.1919 -110.1244 326° Northwest 497 572 20,900 -2,293 Descending Salt Lake Center
Tue 04:38:51 PM 43.2906 -110.2119 327° Northwest 434 499 18,200 -2,439 Descending Salt Lake Center
Tue 04:39:53 PM 43.3819 -110.2964 326° Northwest 399 459 15,900 -2,032 Descending Salt Lake Center
Tue 04:40:55 PM 43.4664 -110.3769 325° Northwest 373 429 14,000 -927 Descending Salt Lake Center
Tue 04:41:56 PM 43.5522 -110.4478 329° Northwest 302 348 14,000  Level Salt Lake Center
Tue 04:42:58 PM 43.6153 -110.4711 345° North 241 277 14,000 -244 Level Salt Lake Center
Tue 04:43:59 PM 43.6736 -110.4958 343° North 224 258 13,500 -927 Descending Salt Lake Center
Tue 04:45:01 PM 43.7219 -110.5419 325° Northwest 225 259 12,100 -1,452 Descending Salt Lake Center
Tue 04:46:03 PM 43.7392 -110.6186 287° West 217 250 10,500 -1,512 Descending Salt Lake Center
Tue 04:47:04 PM 43.7131 -110.6878 242° Southwest 212 244 9,000 -1,415 Descending Salt Lake Center
Tue 04:48:06 PM 43.6611 -110.7106 198° South 178 205 7,600 -1,122 Descending Salt Lake Center
Tue 04:49:07 PM 43.6222 -110.7303 200° South 160 184 6,700 -885 Descending Salt Lake Center

Login

Don't have an account? Register now (free) for customized features, flight alerts, and more!